Time;durP1;ratioP1;P1;durP2;ratioP2;P2;SDS_P1;SDS_P2;PMS_P1;PMS_P2;Temp;Humidity;BMP_temperature;BMP_pressure;BME280_temperature;BME280_humidity;BME280_pressure;Samples;Min_cycle;Max_cycle;Signal;HPM_P1;HPM_P2
2021/06/11 00:00:28;;;;;;;0.50;0.50;;;;;;;15.41;80.07;97220.38;29394;216;64009;-67
2021/06/11 00:00:59;;;;;;;0.50;0.50;;;;;;;15.43;80.07;97218.13;29394;221;64005;-69
2021/06/11 00:01:30;;;;;;;0.50;0.50;;;;;;;15.44;79.85;97213.47;29394;275;64009;-69
2021/06/11 00:02:02;;;;;;;0.50;0.50;;;;;;;15.43;79.97;97218.13;29395;215;63005;-63
2021/06/11 00:02:36;;;;;;;0.50;0.50;;;;;;;15.43;79.97;97211.84;29395;222;63009;-67
2021/06/11 00:03:07;;;;;;;0.50;0.50;;;;;;;15.43;79.94;97217.31;29395;284;63005;-67
2021/06/11 00:03:39;;;;;;;0.50;0.50;;;;;;;15.42;79.84;97216.53;29395;218;63009;-68
2021/06/11 00:04:10;;;;;;;0.50;0.50;;;;;;;15.41;80.00;97209.44;29395;237;63004;-69
2021/06/11 00:04:41;;;;;;;0.50;0.50;;;;;;;15.41;79.92;97214.91;29395;234;63009;-71
2021/06/11 00:05:13;;;;;;;0.50;0.50;;;;;;;15.39;79.99;97206.22;29395;220;63004;-68
2021/06/11 00:05:44;;;;;;;0.50;0.50;;;;;;;15.39;80.23;97211.69;29395;238;63009;-69
2021/06/11 00:06:15;;;;;;;0.50;0.50;;;;;;;15.37;80.23;97213.91;29394;197;64004;-69
2021/06/11 00:06:46;;;;;;;0.50;0.50;;;;;;;15.36;80.42;97212.31;29395;244;63014;-68
2021/06/11 00:07:18;;;;;;;0.50;0.50;;;;;;;15.35;79.91;97210.69;29395;214;63015;-70
2021/06/11 00:07:49;;;;;;;0.50;0.50;;;;;;;15.35;79.96;97210.69;29395;371;63009;-69
2021/06/11 00:08:20;;;;;;;0.50;0.50;;;;;;;15.35;80.10;97215.34;29395;212;63005;-67
2021/06/11 00:08:51;;;;;;;0.50;0.50;;;;;;;15.35;80.01;97216.16;29395;202;63009;-67
2021/06/11 00:09:23;;;;;;;0.50;0.50;;;;;;;15.36;80.17;97211.50;29395;218;63005;-68
2021/06/11 00:09:54;;;;;;;0.50;0.50;;;;;;;15.36;80.13;97214.25;29394;199;64009;-63
2021/06/11 00:10:26;;;;;;;0.50;0.50;;;;;;;15.37;79.86;97216.66;29395;212;63005;-65
2021/06/11 00:10:57;;;;;;;0.50;0.50;;;;;;;15.38;80.06;97209.25;29395;235;63009;-66
2021/06/11 00:11:31;;;;;;;0.50;0.50;;;;;;;15.38;79.95;97204.59;29395;202;63004;-65
2021/06/11 00:12:04;;;;;;;0.50;0.50;;;;;;;15.39;79.99;97210.87;29395;196;63009;-66
2021/06/11 00:12:35;;;;;;;0.45;0.45;;;;;;;15.39;79.87;97211.69;29395;284;63010;-66
2021/06/11 00:13:06;;;;;;;0.50;0.50;;;;;;;15.38;80.06;97210.06;29395;346;63009;-69
2021/06/11 00:13:37;;;;;;;0.50;0.50;;;;;;;15.38;80.37;97210.06;29395;335;63004;-66
2021/06/11 00:14:09;;;;;;;0.50;0.50;;;;;;;15.36;80.08;97206.84;29395;214;63008;-69
2021/06/11 00:14:41;;;;;;;0.50;0.50;;;;;;;15.37;80.15;97213.13;29395;212;63004;-68
2021/06/11 00:15:13;;;;;;;0.50;0.50;;;;;;;15.35;80.07;97198.94;29394;202;64009;-67
2021/06/11 00:15:44;;;;;;;0.50;0.50;;;;;;;15.39;79.73;97206.22;29395;316;63005;-65
2021/06/11 00:16:15;;;;;;;0.50;0.50;;;;;;;15.39;80.04;97206.22;29395;261;63014;-68
2021/06/11 00:16:46;;;;;;;0.50;0.50;;;;;;;15.39;79.78;97206.22;29395;220;63005;-69
2021/06/11 00:17:17;;;;;;;0.50;0.50;;;;;;;15.40;79.43;97212.50;29395;235;63009;-68
2021/06/11 00:17:48;;;;;;;0.50;0.50;;;;;;;15.40;79.64;97213.28;29395;238;63005;-70
2021/06/11 00:18:20;;;;;;;0.50;0.50;;;;;;;15.39;79.67;97206.22;29395;223;63009;-65
2021/06/11 00:18:51;;;;;;;0.50;0.50;;;;;;;15.40;79.94;97202.34;29395;215;63007;-68
2021/06/11 00:19:22;;;;;;;0.50;0.50;;;;;;;15.38;80.32;97204.59;29395;224;63009;-68
2021/06/11 00:19:53;;;;;;;0.50;0.50;;;;;;;15.36;80.12;97209.56;29394;269;64004;-68
2021/06/11 00:20:25;;;;;;;0.50;0.50;;;;;;;15.36;80.13;97211.50;29395;199;63009;-68
2021/06/11 00:20:57;;;;;;;0.40;0.40;;;;;;;15.36;79.88;97203.31;29395;236;63004;-67
2021/06/11 00:21:28;;;;;;;0.50;0.50;;;;;;;15.36;79.74;97206.03;29395;213;63008;-66
2021/06/11 00:22:00;;;;;;;0.50;0.50;;;;;;;15.39;79.89;97203.47;29395;379;63005;-66
2021/06/11 00:22:32;;;;;;;0.50;0.50;;;;;;;15.38;79.82;97204.59;29395;213;63009;-67
2021/06/11 00:23:03;;;;;;;0.50;0.50;;;;;;;15.39;79.82;97208.94;29395;198;63005;-70
2021/06/11 00:23:35;;;;;;;0.50;0.50;;;;;;;15.39;79.65;97203.47;29395;204;63009;-69
2021/06/11 00:24:07;;;;;;;0.50;0.50;;;;;;;15.39;79.75;97205.41;29395;338;63005;-67
2021/06/11 00:24:38;;;;;;;0.50;0.50;;;;;;;15.40;79.46;97207.81;29394;202;64009;-69
2021/06/11 00:25:13;;;;;;;0.50;0.50;;;;;;;15.40;79.94;97209.75;29395;251;63015;-63
2021/06/11 00:25:44;;;;;;;0.50;0.50;;;;;;;15.41;79.64;97197.69;29395;214;63009;-70
2021/06/11 00:26:16;;;;;;;0.50;0.50;;;;;;;15.41;79.43;97195.75;29395;207;63004;-69
2021/06/11 00:26:47;;;;;;;0.50;0.50;;;;;;;15.40;80.08;97196.87;29395;281;63009;-66
2021/06/11 00:27:18;;;;;;;0.50;0.50;;;;;;;15.40;79.60;97199.62;29395;225;63000;-70
2021/06/11 00:28:00;;;;;;;0.50;0.50;;;;;;;15.40;79.38;97201.56;29395;225;63009;-69
2021/06/11 00:28:32;;;;;;;0.50;0.50;;;;;;;15.40;79.38;97202.34;29395;196;63004;-69
2021/06/11 00:29:03;;;;;;;0.50;0.50;;;;;;;15.39;80.23;97199.94;29394;215;64008;-70
2021/06/11 00:29:34;;;;;;;0.50;0.50;;;;;;;15.37;79.84;97200.25;29395;212;63005;-66
2021/06/11 00:30:09;;;;;;;0.50;0.50;;;;;;;15.40;79.65;97202.34;29394;199;64009;-62
2021/06/11 00:30:43;;;;;;;0.50;0.50;;;;;;;15.45;79.43;97203.34;29395;202;63005;-65
2021/06/11 00:31:15;;;;;;;0.50;0.50;;;;;;;15.45;79.34;97208.81;29395;353;63009;-68
2021/06/11 00:31:46;;;;;;;0.50;0.50;;;;;;;15.43;79.20;97199.00;29395;224;63005;-66
2021/06/11 00:32:19;;;;;;;0.50;0.50;;;;;;;15.43;79.13;97196.25;29395;214;63009;-66
2021/06/11 00:32:51;;;;;;;0.50;0.50;;;;;;;15.40;79.90;97205.09;29395;310;63005;-66
2021/06/11 00:33:23;;;;;;;0.50;0.50;;;;;;;15.40;79.44;97202.34;29395;202;63020;-67
2021/06/11 00:33:54;;;;;;;0.50;0.50;;;;;;;15.38;79.90;97204.59;29395;280;63004;-68
2021/06/11 00:34:25;;;;;;;0.50;0.50;;;;;;;15.40;79.53;97202.34;29395;342;63009;-68
2021/06/11 00:35:00;;;;;;;0.50;0.50;;;;;;;15.40;79.38;97202.34;29394;293;64004;-67
2021/06/11 00:35:32;;;;;;;0.50;0.50;;;;;;;15.42;79.51;97200.12;29394;204;64009;-68
2021/06/11 00:36:05;;;;;;;0.50;0.50;;;;;;;15.41;79.75;97201.22;29395;206;63004;-68
2021/06/11 00:36:36;;;;;;;0.50;0.50;;;;;;;15.41;79.29;97208.62;29395;218;63008;-66
2021/06/11 00:37:07;;;;;;;0.50;0.50;;;;;;;15.41;79.50;97209.44;29395;205;63005;-68
2021/06/11 00:37:39;;;;;;;0.50;0.50;;;;;;;15.42;79.21;97205.59;29395;197;63009;-69
2021/06/11 00:38:10;;;;;;;0.50;0.50;;;;;;;15.43;79.40;97206.38;29395;221;63005;-69
2021/06/11 00:38:42;;;;;;;0.50;0.50;;;;;;;15.44;79.12;97202.53;29395;241;63009;-67
2021/06/11 00:39:15;;;;;;;0.50;0.50;;;;;;;15.45;79.12;97206.88;29395;235;63005;-67
2021/06/11 00:39:46;;;;;;;0.50;0.50;;;;;;;15.49;79.14;97204.31;29395;234;63009;-69
2021/06/11 00:40:18;;;;;;;0.50;0.50;;;;;;;15.49;78.89;97209.78;29394;218;64005;-68
2021/06/11 00:40:49;;;;;;;0.50;0.50;;;;;;;15.46;79.02;97200.28;29395;234;63009;-68
2021/06/11 00:41:20;;;;;;;0.50;0.50;;;;;;;15.47;78.95;97207.38;29395;262;63004;-67
2021/06/11 00:41:52;;;;;;;0.50;0.50;;;;;;;15.47;79.00;97201.09;29395;203;63004;-67
2021/06/11 00:42:23;;;;;;;0.50;0.50;;;;;;;15.47;79.69;97195.63;29395;207;63004;-62
2021/06/11 00:42:54;;;;;;;0.50;0.50;;;;;;;15.45;79.25;97201.41;29395;197;63009;-68
2021/06/11 00:43:26;;;;;;;1.20;1.20;;;;;;;15.44;79.36;97205.28;29395;280;63004;-68
2021/06/11 00:43:57;;;;;;;0.40;0.40;;;;;;;15.41;79.63;97201.22;29394;370;64008;-68
2021/06/11 00:44:28;;;;;;;0.50;0.50;;;;;;;15.40;79.89;97205.09;29394;221;64005;-67
2021/06/11 00:45:01;;;;;;;0.50;0.50;;;;;;;15.38;79.75;97207.34;29395;349;63009;-67
2021/06/11 00:45:32;;;;;;;0.50;0.50;;;;;;;15.36;80.33;97195.91;29395;199;63005;-69
2021/06/11 00:46:04;;;;;;;0.50;0.50;;;;;;;15.35;80.26;97199.75;29394;203;64009;-72
2021/06/11 00:46:35;;;;;;;0.50;0.50;;;;;;;15.35;79.92;97199.75;29395;233;63005;-68
2021/06/11 00:47:06;;;;;;;0.50;0.50;;;;;;;15.36;80.04;97212.31;29395;270;63017;-70
2021/06/11 00:47:38;;;;;;;0.50;0.50;;;;;;;15.34;80.27;97203.63;29395;208;63005;-68
2021/06/11 00:48:11;;;;;;;0.50;0.50;;;;;;;15.36;79.96;97206.03;29395;250;63023;-68
2021/06/11 00:48:42;;;;;;;0.50;0.50;;;;;;;15.36;80.26;97206.84;29395;199;63004;-68
2021/06/11 00:49:15;;;;;;;0.50;0.50;;;;;;;15.33;80.03;97206.66;29395;325;63009;-68
2021/06/11 00:49:48;;;;;;;0.40;0.40;;;;;;;15.28;80.28;97210.34;29395;316;63004;-69
2021/06/11 00:50:24;;;;;;;0.50;0.50;;;;;;;15.24;79.87;97203.91;29395;210;63009;-69
2021/06/11 00:50:59;;;;;;;0.50;0.50;;;;;;;15.22;80.03;97208.88;29394;255;64004;-67
2021/06/11 00:51:31;;;;;;;3.92;3.80;;;;;;;15.18;80.67;97207.09;29395;260;63008;-69
2021/06/11 00:52:05;;;;;;;0.50;0.50;;;;;;;15.15;80.51;97205.78;29395;193;63005;-68
2021/06/11 00:52:38;;;;;;;0.50;0.50;;;;;;;15.14;80.43;97209.66;29395;246;63009;-67
2021/06/11 00:53:10;;;;;;;0.60;0.60;;;;;;;15.13;80.62;97202.56;29395;355;63001;-68
2021/06/11 00:53:41;;;;;;;1.35;1.35;;;;;;;15.09;80.49;97204.31;29395;198;63009;-61
2021/06/11 00:54:13;;;;;;;0.50;0.50;;;;;;;15.15;80.62;97215.91;29395;313;63005;-69
2021/06/11 00:54:45;;;;;;;0.50;0.50;;;;;;;15.13;80.17;97205.31;29395;227;63009;-68
2021/06/11 00:55:17;;;;;;;0.50;0.50;;;;;;;15.11;80.54;97207.53;29395;203;63005;-68
2021/06/11 00:55:49;;;;;;;0.50;0.50;;;;;;;15.10;80.37;97208.66;29395;250;63027;-70
2021/06/11 00:56:21;;;;;;;0.50;0.50;;;;;;;15.11;80.35;97210.28;29394;232;64004;-66
2021/06/11 00:56:52;;;;;;;0.50;0.50;;;;;;;15.11;80.62;97209.47;29395;331;63009;-68
2021/06/11 00:57:24;;;;;;;0.50;0.50;;;;;;;15.12;80.72;97206.41;29395;218;63004;-70
2021/06/11 00:57:57;;;;;;;0.50;0.50;;;;;;;15.14;80.44;97209.66;29395;198;63009;-68
2021/06/11 00:58:29;;;;;;;0.40;0.40;;;;;;;15.16;80.60;97201.13;29395;239;63009;-66
2021/06/11 00:59:04;;;;;;;0.50;0.50;;;;;;;15.13;80.73;97208.03;29395;284;63008;-68
2021/06/11 00:59:37;;;;;;;0.90;0.90;;;;;;;15.14;80.69;97198.72;29395;227;63005;-70
2021/06/11 01:00:09;;;;;;;0.50;0.50;;;;;;;15.16;80.91;97204.69;29394;262;64009;-70
2021/06/11 01:00:43;;;;;;;0.50;0.50;;;;;;;15.13;80.90;97208.03;29395;215;63005;-69
2021/06/11 01:01:14;;;;;;;0.68;0.68;;;;;;;15.08;80.83;97210.91;29395;203;63009;-66
2021/06/11 01:01:46;;;;;;;0.45;0.45;;;;;;;15.06;80.64;97211.22;29395;213;63005;-70
2021/06/11 01:02:17;;;;;;;0.50;0.50;;;;;;;15.07;80.46;97209.28;29395;317;63009;-68
2021/06/11 01:02:49;;;;;;;0.50;0.50;;;;;;;15.08;80.79;97216.38;29395;206;63005;-67
2021/06/11 01:03:20;;;;;;;0.50;0.50;;;;;;;15.08;80.61;97208.16;29395;208;63009;-66
2021/06/11 01:03:52;;;;;;;0.50;0.50;;;;;;;15.07;80.92;97212.03;29395;332;63004;-68
2021/06/11 01:04:23;;;;;;;0.50;0.50;;;;;;;15.06;80.80;97218.59;29395;197;63009;-69
2021/06/11 01:04:54;;;;;;;0.50;0.50;;;;;;;15.04;80.99;97213.44;29395;202;63004;-68
2021/06/11 01:05:25;;;;;;;0.50;0.50;;;;;;;15.05;81.05;97206.06;29394;207;64009;-68
2021/06/11 01:05:57;;;;;;;0.50;0.50;;;;;;;15.03;81.08;97216.50;29394;232;64004;-67
2021/06/11 01:06:29;;;;;;;0.50;0.50;;;;;;;15.04;80.84;97216.19;29395;201;63008;-61
2021/06/11 01:07:01;;;;;;;0.50;0.50;;;;;;;15.03;81.00;97213.75;29395;208;63005;-60
2021/06/11 01:07:34;;;;;;;0.90;0.90;;;;;;;15.02;80.75;97214.88;29395;220;63009;-70
2021/06/11 01:08:08;;;;;;;0.50;0.50;;;;;;;15.02;80.86;97210.22;29395;222;63005;-68
2021/06/11 01:08:40;;;;;;;0.40;0.40;;;;;;;15.04;80.57;97215.38;29395;197;63009;-68
2021/06/11 01:09:14;;;;;;;0.50;0.50;;;;;;;15.04;80.55;97215.38;29395;254;63005;-66
2021/06/11 01:09:48;;;;;;;0.50;0.50;;;;;;;15.07;80.45;97206.56;29395;196;63009;-69
2021/06/11 01:10:20;;;;;;;0.50;0.50;;;;;;;15.08;80.49;97210.91;29395;197;63004;-68
2021/06/11 01:10:52;;;;;;;0.50;0.50;;;;;;;15.12;80.31;97205.63;29394;276;64009;-68
2021/06/11 01:11:24;;;;;;;0.50;0.50;;;;;;;15.13;80.39;97205.31;29394;226;64004;-68
2021/06/11 01:11:57;;;;;;;0.50;0.50;;;;;;;15.16;80.09;97214.81;29395;209;63009;-67
2021/06/11 01:12:29;;;;;;;0.40;0.40;;;;;;;15.15;80.00;97211.25;29395;372;63004;-66
2021/06/11 01:13:01;;;;;;;0.50;0.50;;;;;;;15.17;79.75;97208.22;29395;250;63008;-68
2021/06/11 01:13:33;;;;;;;0.50;0.50;;;;;;;15.18;79.96;97209.84;29395;218;63004;-67
2021/06/11 01:14:06;;;;;;;0.50;0.50;;;;;;;15.17;79.96;97217.22;29395;202;63008;-67
2021/06/11 01:14:39;;;;;;;0.50;0.50;;;;;;;15.17;80.02;97217.22;29395;356;63005;-61
2021/06/11 01:15:12;;;;;;;0.50;0.50;;;;;;;15.17;80.15;97214.50;29395;227;63017;-67
2021/06/11 01:15:47;;;;;;;0.60;0.60;;;;;;;15.16;80.44;97212.88;29395;239;63005;-66
2021/06/11 01:16:19;;;;;;;0.50;0.50;;;;;;;15.16;80.20;97209.34;29394;252;64009;-67
2021/06/11 01:16:50;;;;;;;0.50;0.50;;;;;;;15.14;80.62;97212.37;29395;219;63005;-67
2021/06/11 01:17:21;;;;;;;0.50;0.50;;;;;;;15.15;80.31;97211.25;29395;277;63009;-67
2021/06/11 01:17:54;;;;;;;0.45;0.45;;;;;;;15.17;80.25;97209.03;29395;318;63004;-68
2021/06/11 01:18:25;;;;;;;0.50;0.50;;;;;;;15.18;79.68;97209.84;29395;212;63009;-67
2021/06/11 01:18:57;;;;;;;0.55;0.55;;;;;;;15.18;79.87;97210.63;29395;268;63004;-67
2021/06/11 01:19:39;;;;;;;0.50;0.50;;;;;;;15.18;79.85;97210.63;29395;269;63009;-67
2021/06/11 01:20:12;;;;;;;0.50;0.50;;;;;;;15.18;80.23;97210.63;29395;197;63004;-68
2021/06/11 01:20:44;;;;;;;0.50;0.50;;;;;;;15.18;80.31;97216.09;29394;351;64008;-68
2021/06/11 01:21:18;;;;;;;0.50;0.50;;;;;;;15.14;80.61;97209.66;29395;303;63005;-66
2021/06/11 01:22:00;;;;;;;0.50;0.50;;;;;;;15.12;80.51;97211.87;29395;215;63009;-69
2021/06/11 01:22:57;;;;;;;0.50;0.50;;;;;;;15.10;80.57;97211.41;29395;203;63005;-62
2021/06/11 01:24:11;;;;;;;0.50;0.50;;;;;;;15.03;80.94;97213.75;29395;222;63000;-68
2021/06/11 01:25:24;;;;;;;0.50;0.50;;;;;;;15.01;81.46;97208.59;29394;214;64009;-67
2021/06/11 01:26:37;;;;;;;0.50;0.50;;;;;;;14.98;81.28;97219.34;29394;202;64004;-69
2021/06/11 01:27:08;;;;;;;0.68;0.68;;;;;;;14.98;81.20;97211.16;29395;240;63017;-60
2021/06/11 01:27:44;;;;;;;0.50;0.50;;;;;;;14.96;81.13;97213.41;29395;339;63004;-67
2021/06/11 01:28:17;;;;;;;0.50;0.50;;;;;;;14.95;81.22;97211.78;29395;202;63008;-67
2021/06/11 01:28:53;;;;;;;0.50;0.50;;;;;;;14.92;81.26;97209.69;29395;249;63005;-68
2021/06/11 01:29:27;;;;;;;0.50;0.50;;;;;;;14.89;81.48;97213.06;29395;211;63009;-68
2021/06/11 01:30:05;;;;;;;0.50;0.50;;;;;;;14.87;81.59;97215.28;29395;240;63005;-68
2021/06/11 01:30:37;;;;;;;0.50;0.50;;;;;;;14.84;81.94;97216.72;29394;202;64009;-61
2021/06/11 01:31:12;;;;;;;0.50;0.50;;;;;;;14.81;81.90;97211.87;29394;257;64005;-68
2021/06/11 01:31:53;;;;;;;0.50;0.50;;;;;;;14.82;81.81;97207.22;29395;228;63009;-69
2021/06/11 01:32:25;;;;;;;0.60;0.60;;;;;;;14.80;82.03;97210.25;29417;227;63000;-69
2021/06/11 01:32:58;;;;;;;0.50;0.50;;;;;;;14.79;82.17;97213.31;29395;204;63009;-68
2021/06/11 01:33:32;;;;;;;0.50;0.50;;;;;;;14.79;82.12;97210.56;29395;224;63004;-69
2021/06/11 01:34:26;;;;;;;0.50;0.50;;;;;;;14.78;81.88;97217.16;29395;260;63009;-61
2021/06/11 01:35:07;;;;;;;0.50;0.50;;;;;;;14.79;82.03;97214.13;29395;203;63004;-66
2021/06/11 01:35:55;;;;;;;0.50;0.50;;;;;;;14.81;81.72;97216.53;29416;262;64008;-69
2021/06/11 01:36:33;;;;;;;0.50;0.50;;;;;;;14.84;81.62;97213.19;29395;292;63005;-69
2021/06/11 01:37:25;;;;;;;0.50;0.50;;;;;;;14.85;81.40;97217.53;29394;220;64009;-68
2021/06/11 01:38:03;;;;;;;0.50;0.50;;;;;;;14.87;81.40;97209.84;29417;299;63005;-66
2021/06/11 01:38:39;;;;;;;0.50;0.50;;;;;;;14.89;81.29;97213.88;29395;204;63009;-66
2021/06/11 01:39:13;;;;;;;0.50;0.50;;;;;;;14.91;80.98;97216.25;29395;249;63005;-61
2021/06/11 01:39:50;;;;;;;0.50;0.50;;;;;;;14.95;80.95;97214.50;29395;222;63009;-66
2021/06/11 01:40:21;;;;;;;0.50;0.50;;;;;;;14.98;80.62;97211.16;29395;240;63005;-67
2021/06/11 01:40:54;;;;;;;0.50;0.50;;;;;;;14.98;80.97;97211.97;29395;264;63009;-68
2021/06/11 01:41:26;;;;;;;0.50;0.50;;;;;;;14.96;80.89;97216.94;29395;220;63007;-68
2021/06/11 01:41:59;;;;;;;0.50;0.50;;;;;;;14.98;80.93;97216.63;29394;207;64009;-68
2021/06/11 01:42:37;;;;;;;0.50;0.50;;;;;;;14.98;80.66;97211.16;29395;207;63004;-68
2021/06/11 01:43:10;;;;;;;0.50;0.50;;;;;;;14.98;80.87;97211.16;29395;197;63008;-68
2021/06/11 01:43:43;;;;;;;0.50;0.50;;;;;;;14.95;81.04;97214.50;29395;254;63004;-66
2021/06/11 01:44:17;;;;;;;0.50;0.50;;;;;;;14.91;81.27;97210.78;29395;211;63009;-68
2021/06/11 01:44:51;;;;;;;0.50;0.50;;;;;;;14.88;81.53;97211.44;29395;213;63005;-68
2021/06/11 01:45:23;;;;;;;0.50;0.50;;;;;;;14.88;81.16;97211.44;29394;264;64009;-69
2021/06/11 01:45:54;;;;;;;0.50;0.50;;;;;;;14.88;81.55;97214.19;29395;246;63005;-67
2021/06/11 01:46:30;;;;;;;0.50;0.50;;;;;;;14.89;81.59;97210.31;29394;249;64022;-67
2021/06/11 01:47:03;;;;;;;0.50;0.50;;;;;;;14.88;81.63;97211.44;29395;202;63005;-67
2021/06/11 01:47:46;;;;;;;0.50;0.50;;;;;;;14.87;81.27;97204.37;29395;226;63009;-68
2021/06/11 01:48:18;;;;;;;0.50;0.50;;;;;;;14.89;81.23;97208.41;29395;250;63004;-68
2021/06/11 01:48:50;;;;;;;0.50;0.50;;;;;;;14.91;81.20;97213.53;29395;198;63009;-67
2021/06/11 01:49:24;;;;;;;0.50;0.50;;;;;;;14.91;81.14;97206.13;29395;271;63004;-67
2021/06/11 01:49:55;;;;;;;0.50;0.50;;;;;;;14.90;81.46;97209.22;29395;252;63009;-67
2021/06/11 01:50:35;;;;;;;0.50;0.50;;;;;;;14.89;81.60;97210.31;29395;229;63004;-69
2021/06/11 01:51:10;;;;;;;0.50;0.50;;;;;;;14.88;81.65;97209.53;29395;211;63008;-66
2021/06/11 01:51:42;;;;;;;0.50;0.50;;;;;;;14.88;81.42;97211.44;29394;219;64005;-67
2021/06/11 01:52:15;;;;;;;0.50;0.50;;;;;;;14.86;81.65;97203.56;29395;243;63013;-68
2021/06/11 01:52:48;;;;;;;0.50;0.50;;;;;;;14.86;81.69;97208.22;29395;205;63005;-69
2021/06/11 01:53:21;;;;;;;0.50;0.50;;;;;;;14.86;81.69;97210.94;29395;227;63018;-68
2021/06/11 01:53:55;;;;;;;0.50;0.50;;;;;;;14.85;81.85;97206.59;29395;215;63005;-68
2021/06/11 01:54:28;;;;;;;0.50;0.50;;;;;;;14.84;81.96;97208.53;29395;245;63009;-71
2021/06/11 01:55:02;;;;;;;0.62;0.62;;;;;;;14.84;81.93;97202.25;29395;217;63005;-67
2021/06/11 01:55:36;;;;;;;0.50;0.50;;;;;;;14.82;82.10;97205.31;29395;225;63009;-68
2021/06/11 01:56:10;;;;;;;0.98;0.98;;;;;;;14.82;82.10;97204.50;29395;236;63008;-66
2021/06/11 01:56:43;;;;;;;0.50;0.50;;;;;;;14.81;82.13;97205.59;29395;246;63018;-70
2021/06/11 01:57:15;;;;;;;0.50;0.50;;;;;;;14.84;82.04;97210.44;29394;281;64004;-66
2021/06/11 01:57:48;;;;;;;0.50;0.50;;;;;;;14.85;82.13;97206.59;29395;199;63009;-66
2021/06/11 01:58:21;;;;;;;0.50;0.50;;;;;;;14.86;82.09;97219.16;29395;245;63004;-69
2021/06/11 01:58:53;;;;;;;0.50;0.50;;;;;;;14.86;82.01;97217.22;29395;228;63008;-67
2021/06/11 01:59:25;;;;;;;0.50;0.50;;;;;;;14.88;82.06;97205.97;29395;313;63005;-67
2021/06/11 01:59:58;;;;;;;0.50;0.50;;;;;;;14.87;82.05;97209.84;29395;214;63009;-67
2021/06/11 02:00:29;;;;;;;0.50;0.50;;;;;;;14.92;81.75;97207.75;29395;220;63009;-69
2021/06/11 02:01:01;;;;;;;0.50;0.50;;;;;;;14.95;81.97;97209.06;29395;198;63009;-67
2021/06/11 02:01:34;;;;;;;0.50;0.50;;;;;;;14.96;81.46;97197.81;29395;208;63005;-70
2021/06/11 02:02:10;;;;;;;0.50;0.50;;;;;;;14.99;81.51;97207.31;29394;218;64009;-68
2021/06/11 02:02:42;;;;;;;0.50;0.50;;;;;;;15.01;81.48;97205.06;29395;214;63005;-68
2021/06/11 02:03:16;;;;;;;0.50;0.50;;;;;;;15.02;81.53;97209.41;29395;302;63019;-68
2021/06/11 02:03:52;;;;;;;0.50;0.50;;;;;;;15.04;81.48;97207.19;29395;207;63004;-68
2021/06/11 02:04:24;;;;;;;0.50;0.50;;;;;;;15.05;81.39;97200.59;29395;254;63009;-66
2021/06/11 02:04:56;;;;;;;0.50;0.50;;;;;;;15.05;81.34;97206.88;29395;224;63004;-70
2021/06/11 02:05:32;;;;;;;0.50;0.50;;;;;;;15.08;81.30;97205.44;29395;202;63009;-67
2021/06/11 02:06:04;;;;;;;0.50;0.50;;;;;;;15.10;81.32;97203.19;29395;223;63004;-70
2021/06/11 02:06:37;;;;;;;0.50;0.50;;;;;;;15.13;81.15;97205.31;29395;269;63009;-69
2021/06/11 02:07:10;;;;;;;0.50;0.50;;;;;;;15.15;80.80;97200.31;29394;197;64005;-68
2021/06/11 02:07:46;;;;;;;0.50;0.50;;;;;;;15.16;81.04;97207.41;29395;277;63009;-62
2021/06/11 02:08:19;;;;;;;0.50;0.50;;;;;;;15.16;80.60;97199.22;29395;215;63005;-60
2021/06/11 02:08:52;;;;;;;0.50;0.50;;;;;;;15.17;81.00;97203.56;29395;203;63009;-67
2021/06/11 02:09:24;;;;;;;0.43;0.43;;;;;;;15.15;80.79;97203.06;29395;222;63005;-67
2021/06/11 02:09:57;;;;;;;0.50;0.50;;;;;;;15.16;80.69;97201.13;29395;222;63009;-67
2021/06/11 02:10:29;;;;;;;0.40;0.40;;;;;;;15.16;80.93;97201.94;29395;213;63005;-70
2021/06/11 02:11:02;;;;;;;0.50;0.50;;;;;;;15.14;81.09;97204.19;29395;209;63009;-67
2021/06/11 02:11:35;;;;;;;0.50;0.50;;;;;;;15.15;81.04;97210.47;29395;332;63004;-67
2021/06/11 02:12:09;;;;;;;0.50;0.50;;;;;;;15.15;80.73;97208.53;29394;202;64009;-61
2021/06/11 02:12:40;;;;;;;0.47;0.47;;;;;;;15.15;80.84;97203.06;29395;211;63004;-67
2021/06/11 02:13:13;;;;;;;0.50;0.50;;;;;;;15.15;81.10;97205.78;29395;300;63009;-69
2021/06/11 02:13:48;;;;;;;0.50;0.50;;;;;;;15.13;81.04;97202.56;29395;244;63004;-60
2021/06/11 02:14:21;;;;;;;0.50;0.50;;;;;;;15.13;81.18;97212.69;29395;265;63009;-67
2021/06/11 02:14:53;;;;;;;0.50;0.50;;;;;;;15.13;81.21;97199.84;29395;278;63005;-70
2021/06/11 02:15:28;;;;;;;0.50;0.50;;;;;;;15.14;81.06;97204.19;29395;262;63009;-68
2021/06/11 02:16:02;;;;;;;0.50;0.50;;;;;;;15.15;80.85;97210.47;29395;212;63005;-69
2021/06/11 02:16:34;;;;;;;0.50;0.50;;;;;;;15.12;81.22;97205.63;29395;250;63009;-68
2021/06/11 02:17:06;;;;;;;0.50;0.50;;;;;;;15.10;81.00;97197.72;29395;246;63005;-68
2021/06/11 02:17:41;;;;;;;0.50;0.50;;;;;;;15.09;81.34;97196.13;29394;235;63998;-69
2021/06/11 02:18:16;;;;;;;0.50;0.50;;;;;;;15.07;81.14;97203.81;29395;291;63004;-68
2021/06/11 02:18:48;;;;;;;0.50;0.50;;;;;;;15.05;81.49;97204.13;29395;241;63017;-68
2021/06/11 02:19:21;;;;;;;0.52;0.52;;;;;;;15.02;81.60;97202.03;29395;212;63004;-68
2021/06/11 02:19:54;;;;;;;0.50;0.50;;;;;;;15.01;81.76;97199.59;29395;214;63009;-68
2021/06/11 02:20:26;;;;;;;0.50;0.50;;;;;;;15.00;81.51;97200.72;29395;204;63004;-69
2021/06/11 02:20:57;;;;;;;1.15;1.15;;;;;;;15.01;81.68;97197.69;29395;199;63008;-61
2021/06/11 02:21:30;;;;;;;0.50;0.50;;;;;;;15.03;81.52;97197.38;29395;227;63004;-70
2021/06/11 02:22:03;;;;;;;0.50;0.50;;;;;;;15.02;81.40;97195.75;29395;227;63009;-67
2021/06/11 02:22:37;;;;;;;0.50;0.50;;;;;;;15.01;81.60;97208.59;29394;222;64005;-68
2021/06/11 02:23:09;;;;;;;0.50;0.50;;;;;;;15.01;81.70;97207.81;29395;202;63018;-67
2021/06/11 02:23:40;;;;;;;0.50;0.50;;;;;;;15.01;81.20;97196.87;29395;227;63005;-70
2021/06/11 02:24:12;;;;;;;0.50;0.50;;;;;;;15.01;81.31;97208.59;29394;222;64009;-68
2021/06/11 02:24:44;;;;;;;0.50;0.50;;;;;;;15.00;81.27;97198.78;29395;197;63005;-65
2021/06/11 02:25:17;;;;;;;0.50;0.50;;;;;;;15.02;81.42;97196.56;29395;239;63009;-69
2021/06/11 02:25:48;;;;;;;0.57;0.57;;;;;;;15.02;81.31;97201.22;29395;210;63004;-68
2021/06/11 02:26:20;;;;;;;0.50;0.50;;;;;;;15.00;81.71;97200.72;29395;262;63009;-66
2021/06/11 02:26:53;;;;;;;0.50;0.50;;;;;;;14.98;81.52;97198.31;29395;304;63004;-62
2021/06/11 02:27:24;;;;;;;0.50;0.50;;;;;;;14.97;81.34;97209.53;29394;276;64009;-69
2021/06/11 02:27:57;;;;;;;0.50;0.50;;;;;;;14.95;81.44;97206.31;29395;234;63012;-68
2021/06/11 02:28:28;;;;;;;0.50;0.50;;;;;;;14.95;81.69;97198.94;29395;213;63009;-68
2021/06/11 02:29:00;;;;;;;0.50;0.50;;;;;;;15.00;81.09;97206.19;29395;237;63020;-70
2021/06/11 02:29:34;;;;;;;0.50;0.50;;;;;;;15.01;81.23;97210.53;29395;300;63009;-70
2021/06/11 02:30:11;;;;;;;0.50;0.50;;;;;;;14.99;81.06;97207.31;29395;221;63005;-68
2021/06/11 02:30:44;;;;;;;0.50;0.50;;;;;;;14.97;81.20;97215.81;29395;216;63009;-66
2021/06/11 02:31:15;;;;;;;0.50;0.50;;;;;;;14.97;81.12;97209.53;29395;207;63005;-61
2021/06/11 02:31:55;;;;;;;0.50;0.50;;;;;;;14.93;82.00;97205.81;29395;254;63009;-67
2021/06/11 02:32:33;;;;;;;0.43;0.43;;;;;;;14.91;81.76;97210.78;29394;257;64005;-61
2021/06/11 02:33:04;;;;;;;0.50;0.50;;;;;;;14.90;81.80;97214.66;29395;245;63009;-67
2021/06/11 02:33:36;;;;;;;0.50;0.50;;;;;;;14.89;81.81;97213.06;29395;211;63010;-60
2021/06/11 02:34:08;;;;;;;0.50;0.50;;;;;;;14.89;81.79;97208.41;29395;196;63009;-66
2021/06/11 02:34:39;;;;;;;0.50;0.50;;;;;;;14.91;81.45;97206.13;29395;206;63004;-61
2021/06/11 02:35:14;;;;;;;0.50;0.50;;;;;;;14.93;81.54;97214.03;29395;202;63008;-70
2021/06/11 02:35:46;;;;;;;0.50;0.50;;;;;;;14.93;81.65;97211.28;29395;232;63004;-60
2021/06/11 02:36:17;;;;;;;0.50;0.50;;;;;;;14.92;81.74;97207.75;29395;225;63009;-61
2021/06/11 02:36:48;;;;;;;0.40;0.40;;;;;;;14.93;81.41;97214.03;29395;274;63005;-69
2021/06/11 02:37:19;;;;;;;0.50;0.50;;;;;;;14.93;81.74;97209.38;29395;255;63009;-67
2021/06/11 02:37:53;;;;;;;1.48;1.48;;;;;;;14.94;81.62;97207.44;29394;228;64005;-69
2021/06/11 02:38:25;;;;;;;0.50;0.50;;;;;;;14.94;81.83;97213.72;29395;240;63005;-69
2021/06/11 02:38:57;;;;;;;0.40;0.40;;;;;;;14.96;81.71;97213.41;29395;240;63005;-66
2021/06/11 02:39:28;;;;;;;0.50;0.50;;;;;;;14.97;81.53;97209.53;29395;334;63009;-70